ANZ020M NZNR-NZAA
Flight info
| Callsign | ANZ020M |
|---|---|
| Flight time | 0h 57m |
| Altitude | 17000 |
| Route | OBLOX3Q BOVSA H372 MOOSE Y601 DODKU DODKU1A |
| Aircraft | AT76/M-SDFGIRY/S |
Departure
| Time | 2026-04-16 04:09 |
|---|---|
| Airport | Hawke's Bay Airport (NZNR) |
Arrival
| Time | 2026-04-16 05:06 |
|---|---|
| Airport | Auckland International Airport (NZAA) |
| Time | Latitude | Longitude | Altitude | Speed | Heading |
|---|---|---|---|---|---|
| 2026-04-16 03:22 | -39.46573 | 176.87209 | 21 ft | 0 kts | 202° |
| 2026-04-16 04:03 | -39.46579 | 176.87197 | 26 ft | 3 kts | 252° |
| 2026-04-16 04:03 | -39.46575 | 176.87172 | 27 ft | 2 kts | 283° |
| 2026-04-16 04:03 | -39.46565 | 176.87141 | 28 ft | 6 kts | 306° |
| 2026-04-16 04:04 | -39.46505 | 176.87127 | 28 ft | 12 kts | 359° |
| 2026-04-16 04:04 | -39.46441 | 176.87109 | 28 ft | 6 kts | 303° |
| 2026-04-16 04:04 | -39.46437 | 176.87062 | 28 ft | 8 kts | 271° |
| 2026-04-16 04:04 | -39.46438 | 176.86971 | 28 ft | 12 kts | 269° |
| 2026-04-16 04:05 | -39.46439 | 176.86867 | 31 ft | 9 kts | 269° |
| 2026-04-16 04:05 | -39.46426 | 176.86798 | 31 ft | 8 kts | 316° |
| 2026-04-16 04:05 | -39.46363 | 176.86786 | 31 ft | 12 kts | 5° |
| 2026-04-16 04:05 | -39.46266 | 176.86810 | 31 ft | 13 kts | 21° |
| 2026-04-16 04:06 | -39.46213 | 176.86810 | 31 ft | 1 kts | 275° |
| 2026-04-16 04:06 | -39.46223 | 176.86803 | 31 ft | 3 kts | 198° |
| 2026-04-16 04:06 | -39.46232 | 176.86802 | 31 ft | 0 kts | 185° |
| 2026-04-16 04:08 | -39.46454 | 176.86777 | 31 ft | 58 kts | 183° |
| 2026-04-16 04:08 | -39.46982 | 176.86717 | 31 ft | 91 kts | 185° |
| 2026-04-16 04:08 | -39.47704 | 176.86659 | 100 ft | 116 kts | 192° |
| 2026-04-16 04:08 | -39.48529 | 176.86607 | 567 ft | 117 kts | 195° |
| 2026-04-16 04:09 | -39.49350 | 176.86515 | 1072 ft | 119 kts | 195° |
| 2026-04-16 04:09 | -39.50194 | 176.86397 | 1558 ft | 123 kts | 197° |
| 2026-04-16 04:09 | -39.51046 | 176.86291 | 2121 ft | 123 kts | 198° |
| 2026-04-16 04:09 | -39.51932 | 176.86518 | 2349 ft | 159 kts | 155° |
| 2026-04-16 04:10 | -39.52581 | 176.87866 | 2321 ft | 202 kts | 104° |
| 2026-04-16 04:10 | -39.52417 | 176.89694 | 2530 ft | 208 kts | 61° |
| 2026-04-16 04:10 | -39.51724 | 176.91341 | 2812 ft | 209 kts | 51° |
| 2026-04-16 04:10 | -39.50826 | 176.92831 | 3118 ft | 212 kts | 43° |
| 2026-04-16 04:11 | -39.49814 | 176.94188 | 3486 ft | 204 kts | 22° |
| 2026-04-16 04:11 | -39.48681 | 176.95194 | 3802 ft | 207 kts | 41° |
| 2026-04-16 04:11 | -39.47784 | 176.96720 | 4085 ft | 213 kts | 41° |
| 2026-04-16 04:11 | -39.46592 | 176.97726 | 4394 ft | 201 kts | 11° |
| 2026-04-16 04:12 | -39.45263 | 176.98274 | 4743 ft | 199 kts | 2° |
| 2026-04-16 04:12 | -39.43915 | 176.98602 | 5118 ft | 195 kts | 355° |
| 2026-04-16 04:12 | -39.42564 | 176.98780 | 5478 ft | 195 kts | 352° |
| 2026-04-16 04:12 | -39.41211 | 176.98904 | 5828 ft | 196 kts | 352° |
| 2026-04-16 04:13 | -39.39848 | 176.99032 | 6165 ft | 197 kts | 351° |
| 2026-04-16 04:13 | -39.38492 | 176.99131 | 6494 ft | 198 kts | 351° |
| 2026-04-16 04:13 | -39.37111 | 176.99276 | 6829 ft | 199 kts | 352° |
| 2026-04-16 04:13 | -39.35728 | 176.99395 | 7176 ft | 199 kts | 351° |
| 2026-04-16 04:14 | -39.34339 | 176.99532 | 7524 ft | 201 kts | 352° |
| 2026-04-16 04:14 | -39.32945 | 176.99676 | 7850 ft | 202 kts | 352° |
| 2026-04-16 04:14 | -39.31539 | 176.99825 | 8185 ft | 203 kts | 353° |
| 2026-04-16 04:14 | -39.30129 | 176.99993 | 8524 ft | 203 kts | 355° |
| 2026-04-16 04:15 | -39.28715 | 177.00168 | 8840 ft | 205 kts | 355° |
| 2026-04-16 04:15 | -39.27339 | 177.00092 | 9129 ft | 187 kts | 326° |
| 2026-04-16 04:15 | -39.26228 | 176.99302 | 9428 ft | 181 kts | 316° |
| 2026-04-16 04:15 | -39.25218 | 176.98383 | 9729 ft | 179 kts | 310° |
| 2026-04-16 04:16 | -39.24273 | 176.97353 | 9955 ft | 180 kts | 306° |
| 2026-04-16 04:16 | -39.23333 | 176.96218 | 10030 ft | 189 kts | 306° |
| 2026-04-16 04:16 | -39.22354 | 176.95003 | 10083 ft | 201 kts | 306° |
| 2026-04-16 04:16 | -39.21314 | 176.93720 | 10097 ft | 212 kts | 307° |
| 2026-04-16 04:17 | -39.20211 | 176.92391 | 10114 ft | 221 kts | 308° |
| 2026-04-16 04:17 | -39.19062 | 176.91029 | 10108 ft | 227 kts | 308° |
| 2026-04-16 04:17 | -39.17884 | 176.89638 | 10114 ft | 232 kts | 308° |
| 2026-04-16 04:17 | -39.16685 | 176.88227 | 10112 ft | 235 kts | 309° |
| 2026-04-16 04:18 | -39.15468 | 176.86804 | 10119 ft | 237 kts | 309° |
| 2026-04-16 04:18 | -39.14247 | 176.85364 | 10111 ft | 238 kts | 309° |
| 2026-04-16 04:18 | -39.13014 | 176.83926 | 10073 ft | 238 kts | 309° |
| 2026-04-16 04:18 | -39.11805 | 176.82522 | 10064 ft | 236 kts | 309° |
| 2026-04-16 04:19 | -39.10569 | 176.81137 | 10098 ft | 234 kts | 310° |
| 2026-04-16 04:19 | -39.09354 | 176.79743 | 10112 ft | 233 kts | 308° |
| 2026-04-16 04:19 | -39.08169 | 176.78304 | 10123 ft | 235 kts | 307° |
| 2026-04-16 04:19 | -39.06971 | 176.76852 | 10134 ft | 237 kts | 308° |
| 2026-04-16 04:20 | -39.05744 | 176.75411 | 10138 ft | 239 kts | 308° |
| 2026-04-16 04:20 | -39.04508 | 176.73966 | 10107 ft | 240 kts | 308° |
| 2026-04-16 04:20 | -39.03276 | 176.72530 | 10122 ft | 239 kts | 308° |
| 2026-04-16 04:20 | -39.02046 | 176.71089 | 10172 ft | 240 kts | 308° |
| 2026-04-16 04:21 | -39.00804 | 176.69634 | 10219 ft | 242 kts | 309° |
| 2026-04-16 04:21 | -38.99564 | 176.68197 | 10201 ft | 245 kts | 309° |
| 2026-04-16 04:21 | -38.98152 | 176.66969 | 10378 ft | 248 kts | 328° |
| 2026-04-16 04:21 | -38.96552 | 176.66319 | 10833 ft | 234 kts | 333° |
| 2026-04-16 04:22 | -38.95025 | 176.65792 | 11376 ft | 220 kts | 332° |
| 2026-04-16 04:22 | -38.93590 | 176.65283 | 11917 ft | 208 kts | 330° |
| 2026-04-16 04:22 | -38.92236 | 176.64758 | 12349 ft | 201 kts | 328° |
| 2026-04-16 04:22 | -38.90916 | 176.64210 | 12660 ft | 199 kts | 327° |
| 2026-04-16 04:23 | -38.89601 | 176.63664 | 12928 ft | 199 kts | 327° |
| 2026-04-16 04:23 | -38.88276 | 176.63118 | 13154 ft | 201 kts | 327° |
| 2026-04-16 04:23 | -38.86983 | 176.62506 | 13485 ft | 194 kts | 321° |
| 2026-04-16 04:23 | -38.85772 | 176.61768 | 13746 ft | 192 kts | 319° |
| 2026-04-16 04:24 | -38.84582 | 176.60995 | 13979 ft | 192 kts | 318° |
| 2026-04-16 04:24 | -38.83392 | 176.60221 | 14194 ft | 191 kts | 319° |
| 2026-04-16 04:24 | -38.82219 | 176.59459 | 14396 ft | 192 kts | 319° |
| 2026-04-16 04:24 | -38.81019 | 176.58695 | 14624 ft | 192 kts | 319° |
| 2026-04-16 04:25 | -38.79813 | 176.57941 | 14838 ft | 193 kts | 319° |
| 2026-04-16 04:25 | -38.78603 | 176.57189 | 15044 ft | 193 kts | 319° |
| 2026-04-16 04:25 | -38.77389 | 176.56437 | 15232 ft | 194 kts | 320° |
| 2026-04-16 04:25 | -38.76171 | 176.55680 | 15409 ft | 195 kts | 320° |
| 2026-04-16 04:26 | -38.74945 | 176.54920 | 15592 ft | 195 kts | 320° |
| 2026-04-16 04:26 | -38.73738 | 176.54174 | 15794 ft | 196 kts | 320° |
| 2026-04-16 04:26 | -38.72510 | 176.53417 | 15992 ft | 196 kts | 320° |
| 2026-04-16 04:26 | -38.71680 | 176.52903 | 16118 ft | 196 kts | 320° |
| 2026-04-16 04:27 | -38.70465 | 176.52154 | 16304 ft | 197 kts | 320° |
| 2026-04-16 04:27 | -38.68815 | 176.51133 | 16555 ft | 197 kts | 320° |
| 2026-04-16 04:27 | -38.67996 | 176.50627 | 16670 ft | 198 kts | 320° |
| 2026-04-16 04:27 | -38.66754 | 176.49860 | 16813 ft | 200 kts | 320° |
| 2026-04-16 04:28 | -38.65468 | 176.49062 | 16827 ft | 206 kts | 321° |
| 2026-04-16 04:28 | -38.64171 | 176.48263 | 16946 ft | 208 kts | 320° |
| 2026-04-16 04:28 | -38.62857 | 176.47450 | 17007 ft | 212 kts | 321° |
| 2026-04-16 04:28 | -38.61516 | 176.46621 | 17036 ft | 216 kts | 321° |
| 2026-04-16 04:29 | -38.60150 | 176.45777 | 17047 ft | 220 kts | 321° |
| 2026-04-16 04:29 | -38.58763 | 176.44920 | 17056 ft | 223 kts | 322° |
| 2026-04-16 04:29 | -38.57359 | 176.44054 | 17066 ft | 226 kts | 322° |
| 2026-04-16 04:29 | -38.55936 | 176.43176 | 17075 ft | 228 kts | 322° |
| 2026-04-16 04:30 | -38.54497 | 176.42291 | 17076 ft | 231 kts | 322° |
| 2026-04-16 04:30 | -38.53060 | 176.41406 | 17073 ft | 233 kts | 322° |
| 2026-04-16 04:30 | -38.51594 | 176.40506 | 17077 ft | 235 kts | 322° |
| 2026-04-16 04:30 | -38.50119 | 176.39598 | 17080 ft | 236 kts | 322° |
| 2026-04-16 04:31 | -38.48634 | 176.38686 | 17084 ft | 238 kts | 322° |
| 2026-04-16 04:31 | -38.47142 | 176.37768 | 17078 ft | 239 kts | 322° |
| 2026-04-16 04:31 | -38.45640 | 176.36848 | 17074 ft | 239 kts | 322° |
| 2026-04-16 04:31 | -38.44140 | 176.35928 | 17073 ft | 239 kts | 322° |
| 2026-04-16 04:32 | -38.42644 | 176.35009 | 17075 ft | 239 kts | 322° |
| 2026-04-16 04:32 | -38.41146 | 176.34094 | 17080 ft | 239 kts | 322° |
| 2026-04-16 04:32 | -38.39650 | 176.33179 | 17080 ft | 238 kts | 322° |
| 2026-04-16 04:32 | -38.38152 | 176.32264 | 17080 ft | 239 kts | 322° |
| 2026-04-16 04:33 | -38.36675 | 176.31358 | 17076 ft | 239 kts | 322° |
| 2026-04-16 04:33 | -38.35175 | 176.30442 | 17085 ft | 239 kts | 322° |
| 2026-04-16 04:33 | -38.33674 | 176.29522 | 17085 ft | 239 kts | 322° |
| 2026-04-16 04:33 | -38.32171 | 176.28604 | 17085 ft | 240 kts | 322° |
| 2026-04-16 04:34 | -38.30662 | 176.27681 | 17088 ft | 241 kts | 322° |
| 2026-04-16 04:34 | -38.29151 | 176.26757 | 17085 ft | 241 kts | 322° |
| 2026-04-16 04:34 | -38.27635 | 176.25835 | 17088 ft | 242 kts | 322° |
| 2026-04-16 04:34 | -38.26117 | 176.24908 | 17086 ft | 242 kts | 322° |
| 2026-04-16 04:35 | -38.24597 | 176.23982 | 17081 ft | 242 kts | 322° |
| 2026-04-16 04:35 | -38.23080 | 176.23057 | 17081 ft | 242 kts | 322° |
| 2026-04-16 04:35 | -38.21565 | 176.22134 | 17086 ft | 241 kts | 322° |
| 2026-04-16 04:35 | -38.20051 | 176.21215 | 17086 ft | 241 kts | 322° |
| 2026-04-16 04:36 | -38.18540 | 176.20296 | 17088 ft | 240 kts | 322° |
| 2026-04-16 04:36 | -38.17033 | 176.19378 | 17095 ft | 240 kts | 322° |
| 2026-04-16 04:36 | -38.15522 | 176.18463 | 17105 ft | 241 kts | 322° |
| 2026-04-16 04:36 | -38.14010 | 176.17546 | 17095 ft | 241 kts | 322° |
| 2026-04-16 04:37 | -38.12499 | 176.16626 | 17070 ft | 240 kts | 322° |
| 2026-04-16 04:37 | -38.10991 | 176.15707 | 17103 ft | 240 kts | 322° |
| 2026-04-16 04:37 | -38.09481 | 176.14788 | 17089 ft | 241 kts | 322° |
| 2026-04-16 04:37 | -38.07969 | 176.13870 | 17092 ft | 240 kts | 322° |
| 2026-04-16 04:38 | -38.06461 | 176.12958 | 17102 ft | 240 kts | 322° |
| 2026-04-16 04:38 | -38.04954 | 176.12044 | 17105 ft | 240 kts | 322° |
| 2026-04-16 04:38 | -38.03448 | 176.11132 | 17106 ft | 240 kts | 322° |
| 2026-04-16 04:38 | -38.01960 | 176.10232 | 17110 ft | 240 kts | 322° |
| 2026-04-16 04:39 | -38.00453 | 176.09319 | 17110 ft | 240 kts | 322° |
| 2026-04-16 04:39 | -37.98940 | 176.08406 | 17105 ft | 241 kts | 322° |
| 2026-04-16 04:39 | -37.97428 | 176.07490 | 17111 ft | 241 kts | 322° |
| 2026-04-16 04:39 | -37.95914 | 176.06574 | 17113 ft | 242 kts | 323° |
| 2026-04-16 04:40 | -37.94396 | 176.05658 | 17112 ft | 242 kts | 322° |
| 2026-04-16 04:40 | -37.92874 | 176.04738 | 17110 ft | 242 kts | 322° |
| 2026-04-16 04:40 | -37.91351 | 176.03821 | 17111 ft | 242 kts | 322° |
| 2026-04-16 04:40 | -37.89831 | 176.02905 | 17119 ft | 242 kts | 322° |
| 2026-04-16 04:41 | -37.88312 | 176.01988 | 17095 ft | 242 kts | 323° |
| 2026-04-16 04:41 | -37.86795 | 176.01072 | 17119 ft | 242 kts | 323° |
| 2026-04-16 04:41 | -37.85270 | 176.00154 | 17097 ft | 242 kts | 323° |
| 2026-04-16 04:41 | -37.83748 | 175.99240 | 17117 ft | 242 kts | 323° |
| 2026-04-16 04:42 | -37.82228 | 175.98325 | 17113 ft | 242 kts | 323° |
| 2026-04-16 04:42 | -37.80712 | 175.97410 | 17122 ft | 242 kts | 323° |
| 2026-04-16 04:42 | -37.79195 | 175.96498 | 17118 ft | 241 kts | 323° |
| 2026-04-16 04:42 | -37.77679 | 175.95587 | 17127 ft | 241 kts | 323° |
| 2026-04-16 04:43 | -37.76164 | 175.94679 | 17123 ft | 241 kts | 323° |
| 2026-04-16 04:43 | -37.74651 | 175.93774 | 17126 ft | 241 kts | 323° |
| 2026-04-16 04:43 | -37.73141 | 175.92865 | 17128 ft | 240 kts | 323° |
| 2026-04-16 04:43 | -37.71630 | 175.91959 | 17131 ft | 240 kts | 323° |
| 2026-04-16 04:44 | -37.70118 | 175.91053 | 17125 ft | 240 kts | 323° |
| 2026-04-16 04:44 | -37.68607 | 175.90149 | 17120 ft | 241 kts | 323° |
| 2026-04-16 04:44 | -37.67095 | 175.89240 | 17131 ft | 241 kts | 323° |
| 2026-04-16 04:44 | -37.65601 | 175.88343 | 17114 ft | 241 kts | 323° |
| 2026-04-16 04:45 | -37.64086 | 175.87440 | 17099 ft | 240 kts | 323° |
| 2026-04-16 04:45 | -37.62578 | 175.86540 | 17127 ft | 239 kts | 323° |
| 2026-04-16 04:45 | -37.61075 | 175.85639 | 17146 ft | 240 kts | 323° |
| 2026-04-16 04:45 | -37.59566 | 175.84733 | 17150 ft | 241 kts | 323° |
| 2026-04-16 04:46 | -37.58034 | 175.83828 | 17127 ft | 244 kts | 324° |
| 2026-04-16 04:46 | -37.56490 | 175.82920 | 17131 ft | 244 kts | 323° |
| 2026-04-16 04:46 | -37.54949 | 175.82018 | 17127 ft | 244 kts | 323° |
| 2026-04-16 04:46 | -37.53415 | 175.81111 | 17144 ft | 243 kts | 323° |
| 2026-04-16 04:47 | -37.51886 | 175.80199 | 17137 ft | 243 kts | 323° |
| 2026-04-16 04:47 | -37.50359 | 175.79282 | 17156 ft | 244 kts | 323° |
| 2026-04-16 04:47 | -37.48820 | 175.78359 | 17138 ft | 246 kts | 323° |
| 2026-04-16 04:47 | -37.47277 | 175.77438 | 17122 ft | 245 kts | 323° |
| 2026-04-16 04:48 | -37.45738 | 175.76526 | 17128 ft | 244 kts | 323° |
| 2026-04-16 04:48 | -37.44283 | 175.75518 | 17146 ft | 230 kts | 310° |
| 2026-04-16 04:48 | -37.43123 | 175.74112 | 16686 ft | 239 kts | 303° |
| 2026-04-16 04:48 | -37.42022 | 175.72550 | 16645 ft | 237 kts | 301° |
| 2026-04-16 04:49 | -37.40964 | 175.70956 | 16519 ft | 240 kts | 301° |
| 2026-04-16 04:49 | -37.39907 | 175.69309 | 16326 ft | 244 kts | 301° |
| 2026-04-16 04:49 | -37.38824 | 175.67652 | 16114 ft | 248 kts | 302° |
| 2026-04-16 04:49 | -37.37691 | 175.66000 | 15936 ft | 251 kts | 303° |
| 2026-04-16 04:50 | -37.36542 | 175.64344 | 15759 ft | 252 kts | 303° |
| 2026-04-16 04:50 | -37.35383 | 175.62673 | 15493 ft | 256 kts | 303° |
| 2026-04-16 04:50 | -37.34204 | 175.60981 | 15158 ft | 256 kts | 303° |
| 2026-04-16 04:50 | -37.33027 | 175.59310 | 14813 ft | 254 kts | 303° |
| 2026-04-16 04:51 | -37.31878 | 175.57684 | 14479 ft | 251 kts | 303° |
| 2026-04-16 04:51 | -37.30718 | 175.56048 | 14158 ft | 250 kts | 303° |
| 2026-04-16 04:51 | -37.29576 | 175.54417 | 13831 ft | 248 kts | 303° |
| 2026-04-16 04:51 | -37.28445 | 175.52791 | 13487 ft | 247 kts | 303° |
| 2026-04-16 04:52 | -37.27316 | 175.51173 | 13122 ft | 246 kts | 303° |
| 2026-04-16 04:52 | -37.26191 | 175.49563 | 12768 ft | 245 kts | 303° |
| 2026-04-16 04:52 | -37.25071 | 175.47956 | 12419 ft | 244 kts | 303° |
| 2026-04-16 04:52 | -37.23956 | 175.46351 | 12077 ft | 244 kts | 303° |
| 2026-04-16 04:53 | -37.22845 | 175.44750 | 11730 ft | 243 kts | 303° |
| 2026-04-16 04:53 | -37.21733 | 175.43155 | 11406 ft | 243 kts | 303° |
| 2026-04-16 04:53 | -37.20622 | 175.41561 | 11071 ft | 243 kts | 303° |
| 2026-04-16 04:53 | -37.19512 | 175.39964 | 10742 ft | 243 kts | 303° |
| 2026-04-16 04:54 | -37.18400 | 175.38371 | 10412 ft | 243 kts | 303° |
| 2026-04-16 04:54 | -37.17286 | 175.36775 | 10087 ft | 243 kts | 303° |
| 2026-04-16 04:54 | -37.16170 | 175.35180 | 9761 ft | 243 kts | 304° |
| 2026-04-16 04:54 | -37.15076 | 175.33616 | 9421 ft | 239 kts | 303° |
| 2026-04-16 04:55 | -37.13984 | 175.32053 | 9068 ft | 237 kts | 304° |
| 2026-04-16 04:55 | -37.12902 | 175.30506 | 8731 ft | 235 kts | 304° |
| 2026-04-16 04:55 | -37.11825 | 175.28969 | 8397 ft | 234 kts | 304° |
| 2026-04-16 04:55 | -37.10755 | 175.27440 | 8073 ft | 233 kts | 304° |
| 2026-04-16 04:56 | -37.09689 | 175.25916 | 7754 ft | 232 kts | 304° |
| 2026-04-16 04:56 | -37.08628 | 175.24403 | 7448 ft | 232 kts | 304° |
| 2026-04-16 04:56 | -37.07563 | 175.22884 | 7115 ft | 231 kts | 304° |
| 2026-04-16 04:56 | -37.06504 | 175.21371 | 6812 ft | 231 kts | 304° |
| 2026-04-16 04:57 | -37.05442 | 175.19858 | 6514 ft | 231 kts | 304° |
| 2026-04-16 04:57 | -37.04377 | 175.18345 | 6189 ft | 232 kts | 304° |
| 2026-04-16 04:57 | -37.03305 | 175.16822 | 5848 ft | 233 kts | 304° |
| 2026-04-16 04:57 | -37.02234 | 175.15292 | 5499 ft | 233 kts | 304° |
| 2026-04-16 04:58 | -37.01172 | 175.13779 | 5149 ft | 229 kts | 304° |
| 2026-04-16 04:58 | -37.00125 | 175.12294 | 4827 ft | 226 kts | 304° |
| 2026-04-16 04:58 | -36.99096 | 175.10827 | 4467 ft | 222 kts | 304° |
| 2026-04-16 04:58 | -36.98085 | 175.09391 | 4171 ft | 218 kts | 304° |
| 2026-04-16 04:59 | -36.97098 | 175.07993 | 3876 ft | 216 kts | 305° |
| 2026-04-16 04:59 | -36.96120 | 175.06612 | 3575 ft | 205 kts | 305° |
| 2026-04-16 04:59 | -36.95210 | 175.05329 | 3287 ft | 189 kts | 304° |
| 2026-04-16 04:59 | -36.94556 | 175.04104 | 3189 ft | 152 kts | 274° |
| 2026-04-16 05:00 | -36.94644 | 175.02858 | 3002 ft | 147 kts | 257° |
| 2026-04-16 05:00 | -36.94827 | 175.01578 | 2956 ft | 151 kts | 254° |
| 2026-04-16 05:00 | -36.95174 | 175.00338 | 3022 ft | 151 kts | 246° |
| 2026-04-16 05:00 | -36.95549 | 174.99113 | 3027 ft | 149 kts | 247° |
| 2026-04-16 05:01 | -36.95893 | 174.97922 | 2994 ft | 142 kts | 248° |
| 2026-04-16 05:01 | -36.96225 | 174.96753 | 2783 ft | 148 kts | 249° |
| 2026-04-16 05:01 | -36.96543 | 174.95513 | 2536 ft | 150 kts | 251° |
| 2026-04-16 05:01 | -36.96854 | 174.94266 | 2297 ft | 151 kts | 251° |
| 2026-04-16 05:02 | -36.97191 | 174.93012 | 2173 ft | 153 kts | 249° |
| 2026-04-16 05:02 | -36.97542 | 174.91841 | 2038 ft | 137 kts | 246° |
| 2026-04-16 05:02 | -36.97901 | 174.90801 | 1754 ft | 126 kts | 244° |
| 2026-04-16 05:02 | -36.98170 | 174.89775 | 1533 ft | 116 kts | 252° |
| 2026-04-16 05:03 | -36.98365 | 174.88894 | 1382 ft | 95 kts | 252° |
| 2026-04-16 05:03 | -36.98553 | 174.88124 | 1263 ft | 92 kts | 249° |
| 2026-04-16 05:03 | -36.98773 | 174.87362 | 1143 ft | 94 kts | 248° |
| 2026-04-16 05:04 | -36.99219 | 174.85816 | 884 ft | 92 kts | 248° |
| 2026-04-16 05:04 | -36.99432 | 174.85076 | 770 ft | 89 kts | 249° |
| 2026-04-16 05:04 | -36.99654 | 174.84349 | 661 ft | 91 kts | 246° |
| 2026-04-16 05:04 | -36.99887 | 174.83556 | 564 ft | 104 kts | 250° |
| 2026-04-16 05:05 | -37.00096 | 174.82653 | 482 ft | 110 kts | 246° |
| 2026-04-16 05:05 | -37.00328 | 174.81810 | 337 ft | 97 kts | 245° |
| 2026-04-16 05:05 | -37.00536 | 174.81052 | 159 ft | 88 kts | 243° |
| 2026-04-16 05:05 | -37.00743 | 174.80295 | 39 ft | 98 kts | 243° |
| 2026-04-16 05:06 | -37.00942 | 174.79593 | 22 ft | 68 kts | 251° |
| 2026-04-16 05:06 | -37.01052 | 174.79162 | 22 ft | 30 kts | 254° |
| 2026-04-16 05:06 | -37.01066 | 174.78943 | 23 ft | 20 kts | 277° |
| 2026-04-16 05:06 | -37.01049 | 174.78821 | 24 ft | 10 kts | 281° |
| 2026-04-16 05:07 | -37.01046 | 174.78800 | 24 ft | 0 kts | 282° |
| 2026-04-16 05:11 | -37.01025 | 174.78748 | 25 ft | 9 kts | 327° |
| 2026-04-16 05:11 | -37.00966 | 174.78789 | 22 ft | 15 kts | 72° |
| 2026-04-16 05:11 | -37.00925 | 174.78940 | 22 ft | 21 kts | 70° |
| 2026-04-16 05:11 | -37.00890 | 174.79068 | 23 ft | 11 kts | 71° |
| 2026-04-16 05:12 | -37.00837 | 174.79110 | 23 ft | 12 kts | 342° |
| 2026-04-16 05:12 | -37.00779 | 174.79144 | 22 ft | 12 kts | 75° |
| 2026-04-16 05:12 | -37.00747 | 174.79263 | 23 ft | 9 kts | 69° |
| 2026-04-16 05:12 | -37.00706 | 174.79291 | 23 ft | 9 kts | 321° |
| 2026-04-16 05:13 | -37.00684 | 174.79272 | 22 ft | 2 kts | 350° |
| 2026-04-16 05:13 | -37.00675 | 174.79278 | 22 ft | 0 kts | 31° |
| 2026-04-16 05:13 | -37.00674 | 174.79277 | 22 ft | 0 kts | 13° |